Tiempo atmosférico en la estación meteorológica de Tenerife Sur Aeropuerto, Santa Cruz de Tenerife (64 m.)



Fecha
DESCASC
Temp. máxima en grados centígrados (hora)
DESCASC
Temp. mínima en grados centígrados (hora)
DESCASC
Temp. media en grados centígrados
DESCASC
Racha de viento máxima en m/sg (hora)
DESCASC
Velocidad máxima media en intervalos de 10 minutos(hora)
DESCASC
Precipitaciones diarias en mm
DESCASC
Precipitaciones de 00:00 a 06:00 en mm
DESCASC
Precipitaciones de 06:00 a 12:00 en mm
DESCASC
Precipitaciones de 12:00 a 18:00 en mm
DESCASC
Precipitaciones de 18:00 a 24:00 en mm
DESCASC
20-10-2019 26.2 (12:30) 17.9 (07:20) 22.1 14.44 (21:00) 10 (17:40) 0.5 0 0 0.5 0
19-10-2019 26.8 (14:00) 18.2 (07:10) 22.5 11.39 (16:10) 8.89 (16:30) 0 0 0 0 0
18-10-2019 26.1 (14:40) 18.3 (07:40) 22.2 13.33 (17:00) 9.44 (17:00) 0 0 0 0 0
17-10-2019 26 (14:00) 19.7 (00:00) 22.9 15.28 (12:20) 10.83 (12:50) 0 0 0 0 0
16-10-2019 24.9 (11:50) 19.9 (00:00) 22.4 12.78 (14:10) 10 (14:10) 0.1 0 0.1 0 0
15-10-2019 26.2 (14:50) 19.8 (00:00) 23 13.89 (11:40) 10 (18:00) 0 0 0 0 0
14-10-2019 26.9 (15:50) 19.8 (00:00) 23.3 15 (15:10) 10.83 (15:10) 0 0 0 0 0
13-10-2019 26.8 (16:20) 18.7 (00:00) 22.8 10.83 (15:00) 8.06 (15:00) 0 0 0 0 0
12-10-2019 26.9 (13:30) 18.9 (00:00) 22.9 8.89 (10:50) 6.67 (10:50) 0 0 0 0 0
10-10-2019 26.9 (13:30) 18.8 (00:00) 22.8 12.5 (12:00) 9.44 (13:10) 0 0 0 0 0
09-10-2019 27.2 (14:00) 19.2 (00:00) 23.2 13.89 (13:20) 11.11 (14:30) 0 0 0 0 0
08-10-2019 27.2 (13:20) 19.8 (00:00) 23.5 12.78 (12:00) 10 (13:00) 0 0 0 0 0
07-10-2019 27.1 (14:10) 20.3 (00:00) 23.7 13.33 (10:50) 9.72 (14:40) 0 0 0 0 0
06-10-2019 27.5 (15:50) 21.6 (00:00) 24.6 16.39 (14:00) 12.22 (14:40) 0 0 0 0 0
05-10-2019 28.9 (16:00) 21.8 (05:30) 25.3 18.06 (12:20) 12.78 (12:20) 0 0 0 0 0
04-10-2019 28.3 (15:00) 21.5 (00:00) 24.9 16.39 (13:40) 12.22 (13:40) 0 0 0 0 0
03-10-2019 30 (13:20) 22 (00:00) 26 16.11 (04:50) 12.78 (06:40) 0 0 0 0 0
02-10-2019 -- (--) -- (--) -- -- (--) -- (--) -- -- 0 0 0
01-10-2019 31.7 (15:50) 21.8 (00:00) 26.8 16.94 (15:20) 12.5 (15:20) 0 0 0 0 0
30-09-2019 30.6 (14:40) 20 (00:00) 25.3 13.33 (02:30) 9.72 (02:30) 0 0 0 0 0
29-09-2019 28.5 (15:50) 21.4 (00:00) 24.9 12.5 (09:10) 9.17 (14:20) 0 0 0 0 0
28-09-2019 27.8 (13:30) 21.2 (00:00) 24.5 14.44 (12:30) 10.28 (14:30) 0 0 0 0 0
27-09-2019 28 (13:30) 20.9 (00:00) 24.4 14.44 (13:10) 10.28 (18:20) 0 0 0 0 0
26-09-2019 28 (14:20) 20.8 (00:00) 24.4 16.11 (12:40) 11.39 (12:50) 0 0 0 0 0
25-09-2019 28.4 (14:30) 19.7 (00:00) 24.1 16.11 (17:20) 10.83 (16:40) 0 0 0 0 0
24-09-2019 27.6 (14:40) 20.4 (00:00) 24 16.11 (16:20) 12.22 (16:40) 0 0 0 0 0
23-09-2019 28 (14:40) 21.6 (00:00) 24.8 14.44 (16:50) 10.28 (17:00) 0 0 0 0 0
22-09-2019 28.7 (13:10) 20.1 (00:00) 24.4 12.78 (22:20) 8.89 (22:20) 0.6 0 0 0.1 0.5

Gráficas

Temp. máximas Temp. mínimas Temp. medias Precipitaciones Rachas de viento máximas Velocidades máximas media en intervalos de 10 minutos

Datos horarios

Fecha y hora oficial Temperatura (ºC) Velocidad del viento (km/h) Dirección del viento Racha (km/h) Dirección de racha Precipitación (mm) Presión (hPa) Tendencia (hPa) Humedad (%)
2019-10-21 23:00:00 20.4 18 Nordeste 41 Nordeste 0 1010.9 1.3 56
2019-10-21 22:00:00 20.6 17 Nordeste 35 Norte 0 1010.5 1.4 51
2019-10-21 21:00:00 21.3 19 Nordeste 41 Este 0 1010.1 0.8 56
2019-10-21 20:00:00 21.5 23 Este 46 Este 0 1009.6 0.2 62
2019-10-21 19:00:00 22.2 30 Este 45 Este 0 1009.1 -0.3 57
2019-10-21 18:00:00 22.3 25 Nordeste 46 Nordeste 0 1009.3 0 57
2019-10-21 17:00:00 22.5 31 Este 52 Este 0 1009.4 -0.4 57
2019-10-21 16:00:00 22.7 33 Este 50 Este 0 1009.4 -0.9 57
2019-10-21 15:00:00 24 35 Este 58 Este 0 1009.3 -1.1 51
2019-10-21 14:00:00 25.1 39 Este 52 Este 0 1009.8 -0.3 49
2019-10-21 13:00:00 24.1 36 Este 58 Este 0 1010.3 0.6 56
2019-10-21 12:00:00 24.7 34 Este 52 Nordeste 0 1010.4 1.4 46
2019-10-21 11:00:00 23.9 32 Nordeste 50 Este 0 1010.1 1.6 48
2019-10-21 10:00:00 21.7 30 Nordeste 45 Nordeste 0 1009.7 1.6 51
2019-10-21 09:00:00 20.8 25 Nordeste 35 Nordeste 0 1009 1.4 59
2019-10-21 08:00:00 19.9 22 Nordeste 35 Nordeste 0 1008.5 1.1 63
2019-10-21 07:00:00 20.5 24 Nordeste 41 Nordeste 0 1008.1 1 61
2019-10-21 06:00:00 20.8 28 Nordeste 41 Nordeste 0 1007.6 0.1 63
2019-10-21 05:00:00 20.9 22 Nordeste 46 Nordeste 0 1007.4 -0.6 63
2019-10-21 04:00:00 21.1 29 Nordeste 45 Nordeste 0 1007.1 -1.3 62
2019-10-21 03:00:00 21.1 26 Nordeste 41 Nordeste 0 1007.5 -1.1 59
2019-10-21 02:00:00 21.2 24 Nordeste 39 Nordeste 0 1008 -0.6 64
2019-10-21 01:00:00 20.8 21 Nordeste 33 Nordeste 0 1008.4 0.1 69
2019-10-21 00:00:00 21.3 18 Nordeste 32 Nordeste 0 1008.6 0.9 66
2019-10-20 23:00:00 21.1 23 Nordeste 37 Nordeste 0 1008.6 1 68
2019-10-20 22:00:00 20.9 26 Nordeste 46 Nordeste 0 1008.3 0.8 74
2019-10-20 21:00:00 21.3 33 Nordeste 52 Nordeste 0 1007.7 0.3 71
2019-10-20 20:00:00 21.2 33 Nordeste 45 Nordeste 0 1007.6 0.4 77
2019-10-20 19:00:00 21.1 33 Nordeste 46 Nordeste 0 1007.5 0.3 76
2019-10-20 18:00:00 22.3 36 Nordeste 48 Nordeste 0 1007.4 -0.1 77
2019-10-20 17:00:00 22.4 34 Nordeste 46 Nordeste 0.1 1007.2 -0.7 80
2019-10-20 16:00:00 21.9 29 Este 46 Este 0.4 1007.2 -1.1 89
2019-10-20 15:00:00 23 30 Este 46 Este 0 1007.5 -0.8 85
2019-10-20 14:00:00 24.6 25 Este 33 Este 0 1007.9 -0.3 71
2019-10-20 13:00:00 26 12 Sur 22 Sur 0 1008.3 0.5 60
2019-10-20 12:00:00 25.3 14 Sur 22 Sudoeste 0 1008.3 0.9 62
2019-10-20 11:00:00 25 14 Sudoeste 21 Sudoeste 0 1008.2 1.1 60
2019-10-20 10:00:00 22.4 9 Oeste 15 Norte 0 1007.8 1 65
2019-10-20 09:00:00 21.2 7 Noroeste 17 Noroeste 0 1007.4 1 67
2019-10-20 08:00:00 18.9 12 Noroeste 15 Noroeste 0 1007.1 0.8 71
2019-10-20 07:00:00 18.4 9 Noroeste 26 Noroeste 0 1006.8 0.4 70
2019-10-20 06:00:00 18.2 7 Norte 13 Noroeste 0 1006.4 -0.4 67
2019-10-20 05:00:00 18.5 9 Noroeste 17 Noroeste 0 1006.3 -1 67
2019-10-20 04:00:00 19.4 13 Noroeste 18 Noroeste 0 1006.4 -1.5 73
2019-10-20 03:00:00 19.7 13 Noroeste 26 Noroeste 0 1006.8 -1.4 74
2019-10-20 02:00:00 20.2 13 Noroeste 21 Noroeste 0 1007.3 -1 72
2019-10-20 01:00:00 20.1 14 Noroeste 17 Noroeste 0 1007.9 -0.1 69
2019-10-20 00:00:00 20.1 9 Noroeste 13 Noroeste 0 1008.2 0.8 71
2019-10-19 23:00:00 20.8 6 Norte 24 Norte 0 1008.3 1.3 70
2019-10-19 22:00:00 22.1 5 Norte 32 Nordeste 0 1008 0.9 71
2019-10-19 21:00:00 22.8 9 Nordeste 33 Norte 0 1007.4 0.6 70
2019-10-19 20:00:00 22.8 13 Este 28 Este 0 1007 0.3 71
2019-10-19 19:00:00 23.9 22 Este 33 Nordeste 0 1007.1 0.1 65
2019-10-19 18:00:00 25.3 26 Este 39 Este 0 1006.8 -0.7 60
2019-10-19 17:00:00 25.8 31 Este 41 Este 0 1006.7 -1.6 55
2019-10-19 16:00:00 25.8 30 Este 39 Este 0 1007 -2.1 56
2019-10-19 15:00:00 26.2 23 Este 33 Este 0 1007.5 -1.9 56
2019-10-19 14:00:00 26.6 24 Este 33 Este 0 1008.3 -1.3 53
2019-10-19 13:00:00 25.7 19 Este 33 Este 0 1009.1 -0.2 56
2019-10-19 12:00:00 24.9 18 Este 28 Sudeste 0 1009.4 0.5 58
2019-10-19 11:00:00 24.6 18 Este 26 Este 0 1009.6 1.2 59
2019-10-19 10:00:00 23 9 Nordeste 13 Nordeste 0 1009.3 0.9 63
2019-10-19 09:00:00 19.4 10 Noroeste 17 Norte 0 1008.9 0.7 72
2019-10-19 08:00:00 18.6 11 Norte 18 Norte 0 1008.4 0.1 75
2019-10-19 07:00:00 18.6 11 Noroeste 24 Norte 0 1008.4 -0.2 75
2019-10-19 06:00:00 19 10 Norte 17 Norte 0 1008.2 -0.7 75
2019-10-19 05:00:00 19.6 12 Norte 15 Norte 0 1008.3 -1.2 71
2019-10-19 04:00:00 19.4 13 Norte 18 Norte 0 1008.6 -1.3 71
2019-10-19 03:00:00 19.4 11 Norte 17 Norte 0 1008.9 -1.5 72
2019-10-19 02:00:00 19.9 13 Norte 21 Norte 0 1009.5 -0.9 72
2019-10-19 01:00:00 19.9 11 Norte 15 Nordeste 0 1009.9 -0.2 72
2019-10-19 00:00:00 20.3 11 Nordeste 24 Nordeste 0 1010.4 0.7 71
2019-10-18 23:00:00 21 11 Nordeste 24 Norte 0 1010.4 1 73
2019-10-18 22:00:00 21.8 11 Nordeste 33 Norte 0 1010.1 0.8 71
2019-10-18 21:00:00 21.6 14 Nordeste 32 Este 0 1009.7 0.6 73
2019-10-18 20:00:00 22 26 Nordeste 39 Este 0 1009.4 0.2 72
2019-10-18 19:00:00 22.9 28 Este 41 Este 0 1009.3 -0.2 68
2019-10-18 18:00:00 24.6 30 Este 45 Este 0 1009.1 -0.9 62
2019-10-18 17:00:00 25.3 34 Este 48 Este 0 1009.2 -2.1 58
2019-10-18 16:00:00 25.4 33 Este 42 Este 0 1009.5 -2.3 58
2019-10-18 15:00:00 26 32 Este 41 Este 0 1010 -2.2 54
2019-10-18 14:00:00 24.6 27 Este 37 Este 0 1011.3 -1.1 60
2019-10-18 13:00:00 24.2 26 Este 37 Este 0 1011.8 -0.2 63
2019-10-18 12:00:00 25.3 26 Este 33 Este 0 1012.2 0.7 59
2019-10-18 11:00:00 24.1 15 Este 22 Este 0 1012.4 0.9 58
2019-10-18 10:00:00 22.8 6 Este 13 Este 0 1012 0.8 61
2019-10-18 09:00:00 19.8 10 Norte 17 Norte 0 1011.5 0.6 66
2019-10-18 08:00:00 18.8 13 Norte 22 Norte 0 1011.5 0.5 66
2019-10-18 07:00:00 19.4 13 Norte 18 Norte 0 1011.2 -0.4 65
2019-10-18 06:00:00 19.7 13 Norte 24 Norte 0 1010.9 -0.9 62
2019-10-18 05:00:00 19.8 15 Norte 22 Norte 0 1011 -1.2 62
2019-10-18 04:00:00 19.8 13 Norte 18 Nordeste 0 1011.6 -1 62
2019-10-18 03:00:00 19.9 13 Norte 32 Norte 0 1011.8 -1 62
2019-10-18 02:00:00 19.5 11 Norte -- -- -- 1012.2 -0.6 63
2019-10-18 01:00:00 20.1 12 Norte 18 Norte 0 1012.6 0 62
2019-10-18 00:00:00 20.3 13 Norte 17 Norte 0 1012.8 0.8 66
2019-10-17 23:00:00 20.6 11 Norte 26 Norte 0 1012.8 1.4 68
2019-10-17 22:00:00 21.1 13 Nordeste 35 Nordeste 0 1012.6 1.6 67
2019-10-17 21:00:00 21.5 15 Nordeste 28 Nordeste 0 1012 0.9 64
2019-10-17 20:00:00 21.9 21 Nordeste 37 Nordeste 0 1011.4 0.3 61
2019-10-17 19:00:00 23.1 25 Nordeste 42 Este 0 1011 -0.3 56
2019-10-17 18:00:00 23.8 30 Este 42 Nordeste 0 1011.1 -0.4 57
2019-10-17 17:00:00 24.9 29 Este 46 Este 0 1011.1 -1.2 56
2019-10-17 16:00:00 25.1 37 Este 50 Este 0 1011.3 -1.6 54
2019-10-17 15:00:00 25.4 36 Este 50 Este 0 1011.5 -1.2 49
2019-10-17 14:00:00 25.5 35 Este 55 Este 0 1012.3 -0.5 48
2019-10-17 13:00:00 25.2 37 Este 55 Este 0 1012.9 0.3 49
2019-10-17 12:00:00 24.8 35 Este 54 Este 0 1012.7 0.5 53
2019-10-17 11:00:00 24 35 Este 52 Este 0 1012.8 1.2 52
2019-10-17 10:00:00 23 30 Nordeste 41 Nordeste 0 1012.6 1.2 56
2019-10-17 09:00:00 20.9 17 Nordeste 30 Nordeste 0 1012.2 0.6 63
2019-10-17 08:00:00 19.9 22 Nordeste 30 Nordeste 0 1011.6 -0.1 66
2019-10-17 07:00:00 19.7 20 Nordeste 28 Nordeste 0 1011.4 -0.6 67
2019-10-17 06:00:00 20.3 16 Nordeste 22 Nordeste 0 1011.6 -0.5 65
2019-10-17 05:00:00 20.6 17 Nordeste 24 Nordeste 0 1011.7 -0.4 63
2019-10-17 04:00:00 20.5 15 Norte 24 Norte 0 1012 -0.3 63
2019-10-17 03:00:00 20.4 15 Nordeste 28 Nordeste 0 1012.1 -0.9 64
2019-10-17 02:00:00 20.6 16 Nordeste 32 Nordeste 0 1012.1 -1 67
2019-10-17 01:00:00 20.6 19 Nordeste 42 Norte 0 1012.3 -0.5 69
2019-10-17 00:00:00 20.8 14 Nordeste 28 Nordeste 0 1013 0.8 70
2019-10-16 23:00:00 21.2 14 Nordeste 28 Nordeste 0 1013.1 1.7 69
2019-10-16 22:00:00 21.4 19 Nordeste 32 Nordeste 0 1012.8 1.9 68
2019-10-16 21:00:00 21.9 21 Nordeste 30 Nordeste 0 1012.2 1.2 68
2019-10-16 20:00:00 22.1 24 Nordeste 33 Nordeste 0 1011.4 0.1 65
2019-10-16 19:00:00 22.9 27 Nordeste 37 Nordeste 0 1010.9 -0.6 61
2019-10-16 18:00:00 24 27 Nordeste 41 Nordeste 0 1011 -0.7 57
2019-10-16 17:00:00 23.7 28 Nordeste 42 Este 0 1011.3 -0.4 61
2019-10-16 16:00:00 23.3 26 Nordeste 41 Nordeste 0 1011.5 -1.5 64
2019-10-16 15:00:00 22.4 32 Nordeste 46 Este 0 1011.7 -1.2 71
2019-10-16 14:00:00 22.6 35 Este 45 Este 0 1011.7 -1 71
2019-10-16 13:00:00 23.8 26 Este 45 Este 0 1013 0.6 61
2019-10-16 12:00:00 24.6 28 Este 42 Este 0 1012.9 1.3 58
2019-10-16 11:00:00 23.4 31 Nordeste 42 Nordeste 0 1012.7 1.3 64
2019-10-16 10:00:00 21.2 25 Este 33 Este 0.1 1012.4 1.3 76
2019-10-16 09:00:00 21.2 21 Nordeste 30 Nordeste 0 1011.6 0.7 73
2019-10-16 08:00:00 19.9 15 Nordeste 26 Nordeste 0 1011.4 0.3 74
2019-10-16 07:00:00 20 17 Nordeste 30 Nordeste 0 1011.1 -0.3 74
2019-10-16 06:00:00 20.1 17 Nordeste 24 Nordeste 0 1010.9 -1.1 70
2019-10-16 05:00:00 20.5 16 Nordeste 24 Nordeste 0 1011.1 -1.1 70
2019-10-16 04:00:00 20.5 17 Norte 24 Nordeste 0 1011.4 -1.2 67
2019-10-16 03:00:00 20.3 15 Nordeste 24 Nordeste 0 1012 -0.8 63
2019-10-16 02:00:00 20.6 13 Nordeste 30 Nordeste 0 1012.2 -0.6 67
2019-10-16 01:00:00 20.9 19 Nordeste 32 Nordeste 0 1012.6 0.3 68
2019-10-16 00:00:00 21.2 24 Nordeste 35 Nordeste 0 1012.8 0.7 68
2019-10-15 23:00:00 21.4 23 Nordeste 45 Nordeste 0 1012.8 1.2 66
2019-10-15 22:00:00 21.7 27 Nordeste 39 Nordeste 0 1012.3 1.2 66
2019-10-15 21:00:00 22 30 Nordeste 45 Este 0 1012.1 1.4 64
2019-10-15 20:00:00 22.3 29 Este 45 Este 0 1011.6 1.2 65
2019-10-15 19:00:00 22.9 31 Este 46 Este 0 1011.1 0.6 61
2019-10-15 18:00:00 24 36 Este 46 Este 0 1010.7 -0.8 55
2019-10-15 17:00:00 25.3 30 Este 48 Este 0 1010.4 -1.9 55
2019-10-15 16:00:00 26 32 Este 46 Este 0 1010.5 -2.4 54
2019-10-15 15:00:00 25.8 32 Este 46 Este 0 1011.5 -2 56
2019-10-15 14:00:00 25.7 32 Este 46 Este 0 1012.3 -0.7 57
2019-10-15 13:00:00 25.1 35 Este 46 Este 0 1012.9 0.2 58
2019-10-15 12:00:00 24.6 31 Este 50 Este 0 1013.5 1.4 56
2019-10-15 11:00:00 24.8 31 Este 45 Este 0 1013 1.1 55
2019-10-15 10:00:00 23.4 30 Nordeste 39 Este 0 1012.7 1.3 60
2019-10-15 09:00:00 21.2 25 Nordeste 35 Nordeste 0 1012.1 0.8 70
2019-10-15 08:00:00 20.4 23 Nordeste 37 Nordeste 0 1011.9 0.7 71
2019-10-15 07:00:00 20.7 31 Nordeste 45 Nordeste 0 1011.4 -0.2 74
2019-10-15 06:00:00 19.9 18 Nordeste 28 Nordeste 0 1011.3 -0.4 68
2019-10-15 05:00:00 19.8 18 Nordeste 26 Nordeste 0 1011.2 -0.9 66
2019-10-15 04:00:00 20.2 18 Nordeste 35 Nordeste 0 1011.6 -1.1 61
2019-10-15 03:00:00 20.5 22 Nordeste 39 Nordeste 0 1011.7 -1.2 62
2019-10-15 02:00:00 20.7 23 Nordeste 35 Nordeste 0 1012.1 -0.6 64
2019-10-15 01:00:00 21.1 24 Nordeste 33 Nordeste 0 1012.7 0.2 67
2019-10-15 00:00:00 21.3 25 Nordeste 33 Nordeste 0 1012.9 0.9 68
2019-10-14 23:00:00 21.3 20 Nordeste 30 Nordeste 0 1012.7 1.5 70
2019-10-14 22:00:00 21.5 22 Este 39 Nordeste 0 1012.5 1.6 69
2019-10-14 21:00:00 21.9 24 Nordeste 37 Nordeste 0 1012 1.1 68
2019-10-14 20:00:00 22.3 25 Nordeste 41 Nordeste 0 1011.2 0 65
2019-10-14 19:00:00 23.8 32 Nordeste 42 Nordeste 0 1010.9 0.1 59
2019-10-14 18:00:00 24.7 34 Nordeste 48 Este 0 1010.9 -0.5 57
2019-10-14 17:00:00 25.5 37 Este 50 Este 0 1011.2 -0.7 56
2019-10-14 16:00:00 26.2 34 Este 54 Este 0 1010.8 -1.5 56
2019-10-14 15:00:00 25.9 34 Este 52 Este 0 1011.4 -0.8 57
2019-10-14 14:00:00 26.3 36 Este 50 Este 0 1011.9 -0.3 57
2019-10-14 13:00:00 25.6 35 Este 48 Nordeste 0 1012.3 0.7 58
2019-10-14 12:00:00 24.9 32 Este 41 Este 0 1012.2 1 62
2019-10-14 11:00:00 24.7 28 Este 41 Este 0 1012.2 1.7 60
2019-10-14 10:00:00 23.6 22 Este 32 Nordeste 0 1011.6 1.2 66
2019-10-14 09:00:00 21.4 22 Nordeste 33 Nordeste 0 1011.2 1.3 76
2019-10-14 08:00:00 20.4 18 Nordeste 28 Nordeste 0 1010.5 0.9 81
2019-10-14 07:00:00 20.5 17 Nordeste 24 Nordeste 0 1010.4 0.7 84
2019-10-14 06:00:00 20.4 15 Nordeste 21 Nordeste 0 1009.9 -0.1 86
2019-10-14 05:00:00 20.4 14 Nordeste 21 Nordeste 0 1009.6 -0.7 74
2019-10-14 04:00:00 20.6 13 Nordeste 18 Nordeste 0 1009.7 -0.7 71
2019-10-14 03:00:00 20.7 12 Nordeste 22 Nordeste 0 1010 -0.9 72
2019-10-14 02:00:00 20.8 12 Nordeste 26 Norte 0 1010.3 -0.2 73
2019-10-14 01:00:00 21 9 Nordeste 17 Este 0 1010.4 0.5 73
2019-10-14 00:00:00 21.7 9 Nordeste 13 Nordeste 0 1010.9 1.5 75
2019-10-13 23:00:00 21.5 11 Nordeste 32 Norte 0 1010.5 1.9 74
2019-10-13 22:00:00 22 10 Nordeste 26 Norte 0 1009.9 1.6 73
2019-10-13 21:00:00 22.4 7 Este 11 Este 0 1009.4 1.5 73
2019-10-13 20:00:00 22.9 9 Sur 22 Sur 0 1008.6 1.2 72
2019-10-13 19:00:00 24.4 15 Sur 28 Sudoeste 0 1008.3 1.1 66
2019-10-13 18:00:00 25.5 22 Sudoeste 37 Sudoeste 0 1007.9 0.5 60
2019-10-13 17:00:00 26.1 25 Sudoeste 35 Sudoeste 0 1007.4 -0.4 57
2019-10-13 16:00:00 26.1 26 Sur 39 Sur 0 1007.2 -0.9 58
2019-10-13 15:00:00 25.9 29 Sudoeste 39 Sudoeste 0 1007.4 -0.9 57
2019-10-13 14:00:00 25.4 21 Sur 30 Sudoeste 0 1007.8 -0.5 62
2019-10-13 13:00:00 25.2 16 Sudoeste 26 Sudoeste 0 1008.1 0.2 60
2019-10-13 12:00:00 25 13 Sur 24 Sur 0 1008.3 1 61
2019-10-13 11:00:00 24.3 16 Sur 22 Sur 0 1008.3 1.1 64
2019-10-13 10:00:00 23.3 8 Sur 13 Sur 0 1007.9 1.1 61
2019-10-13 09:00:00 20.1 7 Norte 17 Noroeste 0 1007.3 0.9 73
2019-10-13 08:00:00 19 7 Norte 11 Norte 0 1007.2 0.8 75
2019-10-13 07:00:00 20.2 10 Norte 26 Noroeste 0 1006.8 0.3 68
2019-10-13 06:00:00 19.6 5 Norte 11 Norte 0 1006.4 -0.6 71
2019-10-13 05:00:00 21.2 6 Norte 11 Norte 0 1006.4 -1 69
2019-10-13 04:00:00 22 5 Nordeste 11 Este 0 1006.5 -1.2 70
2019-10-13 03:00:00 22.2 6 Nordeste 11 Este 0 1007 -0.7 70
2019-10-13 02:00:00 22.3 7 Este 13 Este 0 1007.4 -0.4 70
2019-10-13 01:00:00 22.3 7 Este 15 Este 0 1007.7 0.3 71
2019-10-13 00:00:00 22.3 14 Este 22 Nordeste 0 1007.7 0.6 69
2019-10-12 23:00:00 22.6 14 Este 24 Nordeste 0 1007.8 1 69
2019-10-12 22:00:00 22.8 15 Este 22 Este 0 1007.4 0.7 66
2019-10-12 21:00:00 22.9 13 Este 18 Este 0 1007.1 0.2 65
2019-10-12 20:00:00 23 11 Este 15 Este 0 1006.8 -0.2 64
2019-10-12 19:00:00 23.5 11 Este 17 Este 0 1006.7 -0.3 63
2019-10-12 18:00:00 23.7 10 Sudeste 18 Este 0 1006.9 -0.4 63
2019-10-12 17:00:00 24.1 11 Sudeste 22 Este 0 1007 -0.7 63
2019-10-12 16:00:00 25.3 15 Sudeste 24 Este 0 1007 -1.7 59
2019-10-12 15:00:00 26 15 Sudeste 26 Este 0 1007.3 -1.7 54
2019-10-12 14:00:00 26.3 17 Este 28 Este 0 1007.7 -1.2 48
2019-10-12 13:00:00 26.1 17 Este 30 Sudeste 0 1008.7 0.1 48
2019-10-12 12:00:00 25.4 22 Este 32 Este 0 1009 0.9 56
2019-10-12 11:00:00 24.9 24 Este 32 Este 0 1008.9 1.1 54
2019-10-12 10:00:00 23.4 17 Nordeste 24 Nordeste 0 1008.6 1 57
2019-10-12 09:00:00 21.3 13 Nordeste 18 Norte 0 1008.1 0.8 63
2019-10-12 08:00:00 19.4 13 Nordeste 24 Nordeste 0 1007.8 0.3 71
2019-10-12 07:00:00 19.5 10 Nordeste 28 Nordeste 0 1007.6 -0.1 70
2019-10-12 06:00:00 19.5 13 Norte 17 Norte 0 1007.3 -0.7 72
2019-10-12 05:00:00 19.4 8 Nordeste 13 Este 0 1007.5 -1.1 73
2019-10-12 04:00:00 20.2 10 Norte 13 Norte 0 1007.7 -1.3 76
2019-10-12 03:00:00 21.1 9 Nordeste 17 Nordeste 0 1008 -1.3 70
2019-10-12 02:00:00 22.1 13 Nordeste 21 Este 0 1008.6 -0.7 73
2019-10-12 01:00:00 22.3 15 Este 24 Este 0 1009 0 78
2019-10-12 00:00:00 22.4 16 Este 30 Este 0 1009.3 1.1 78
2019-10-11 23:00:00 22.6 20 Este 28 Este 0 1009.3 1.7 77
2019-10-11 22:00:00 22.6 18 Este 28 Este 0 1009 1.5 79
2019-10-11 21:00:00 22.8 16 Este 24 Este 0 1008.2 0.8 77
2019-10-11 20:00:00 23 11 Este 17 Este 0 1007.6 0.1 77
2019-10-11 19:00:00 23.3 8 Sudeste 13 Sudeste 0 1007.5 -0.2 72
2019-10-11 18:00:00 23.5 9 Sudeste 15 Sudeste 0 1007.4 -0.7 70
2019-10-11 17:00:00 23.6 9 Sudeste 18 Sudeste 0 1007.5 -0.9 73
2019-10-11 16:00:00 23.5 11 Sudeste 21 Sudeste 0 1007.7 -1.4 71
2019-10-11 15:00:00 23.7 12 Sudeste 32 Sudeste 0 1008.1 -1.3 72
2019-10-11 14:00:00 25.1 23 Este 33 Este 0 1008.4 -1.3 66
2019-10-11 13:00:00 25.9 23 Este 33 Este 0 1009.1 -0.3 63
2019-10-11 12:00:00 25.7 19 Este 28 Este 0 1009.4 0.8 56
2019-10-11 11:00:00 24.6 12 Este 21 Este 0 1009.7 1.9 65
2019-10-11 10:00:00 23.7 10 Este 17 Nordeste 0 1009.4 1.8 63
2019-10-11 09:00:00 21.2 9 Nordeste 17 Nordeste 0 1008.6 1.2 64
2019-10-11 08:00:00 19 10 Norte 22 Norte 0 1007.8 0.2 76
2019-10-11 07:00:00 19.7 7 Norte 21 Norte 0 1007.6 -0.4 80
2019-10-11 06:00:00 20.8 9 Norte 11 Nordeste 0 1007.4 -0.8 79
2019-10-11 05:00:00 21.2 9 Norte 13 Nordeste 0 1007.6 -0.8 81
2019-10-11 04:00:00 20.9 9 Este 11 Este 0 1008 -0.9 83
2019-10-11 03:00:00 21.3 9 Este 17 Norte 0 1008.2 -0.6 83
2019-10-11 02:00:00 21.7 10 Nordeste 13 Nordeste 0 1008.4 -0.4 80
2019-10-11 01:00:00 21.6 10 Nordeste 17 Nordeste 0 1008.9 0.5 81
2019-10-11 00:00:00 21.5 12 Nordeste 22 Nordeste 0 1008.8 1 80
2019-10-10 23:00:00 21.9 17 Nordeste 26 Este 0 1008.8 1.5 78
2019-10-10 22:00:00 22.5 16 Este 30 Este 0 1008.4 1.4 77
2019-10-10 21:00:00 22.6 19 Este 28 Este 0 1007.8 1 78
2019-10-10 20:00:00 23 19 Este 30 Este 0 1007.3 0.9 76
2019-10-10 19:00:00 23.7 23 Este 33 Este 0 1007 0.4 70
2019-10-10 18:00:00 24.1 26 Este 37 Este 0 1006.8 0 69
2019-10-10 17:00:00 25.5 28 Este 41 Este 0 1006.4 -1.2 61
2019-10-10 16:00:00 26.4 28 Este 41 Este 0 1006.6 -1.8 60
2019-10-10 15:00:00 26.1 30 Este 42 Este 0 1006.8 -2.1 59
2019-10-10 14:00:00 26.4 32 Este 45 Este 0 1007.6 -1 59
2019-10-10 13:00:00 26.2 33 Este 45 Este 0 1008.4 0 59
2019-10-10 12:00:00 25.6 32 Este 45 Este 0 1008.9 1 64
2019-10-10 11:00:00 25.6 25 Nordeste 37 Nordeste 0 1008.6 1 62
2019-10-10 10:00:00 24.3 17 Este 24 Nordeste 0 1008.4 1.2 59
2019-10-10 09:00:00 21 10 Norte 15 Norte 0 1007.9 0.7 62
2019-10-10 08:00:00 18.9 11 Norte 15 Noroeste 0 1007.6 0.6 76
2019-10-10 07:00:00 20 11 Nordeste 21 Nordeste 0 1007.2 -0.2 77
2019-10-10 06:00:00 20.1 10 Norte 17 Nordeste 0 1007.2 -0.7 69
2019-10-10 05:00:00 19.7 12 Norte 17 Norte 0 1007 -1.4 70
2019-10-10 04:00:00 20.6 11 Norte 24 Norte 0 1007.4 -1.1 69
2019-10-10 03:00:00 19.8 10 Norte 17 Nordeste 0 1007.9 -1.1 75
2019-10-10 02:00:00 20.9 11 Norte 18 Nordeste 0 1008.4 -0.5 71
2019-10-10 01:00:00 20.9 16 Nordeste 22 Nordeste 0 1008.5 0.1 71
2019-10-10 00:00:00 21.2 12 Norte 17 Nordeste 0 1009 0.7 70
2019-10-09 23:00:00 21.6 12 Nordeste 30 Norte 0 1008.9 0.9 70
2019-10-09 22:00:00 22.2 14 Nordeste 33 Nordeste 0 1008.4 1 68
2019-10-09 21:00:00 22.6 18 Nordeste 35 Este 0 1008.3 1 69
2019-10-09 20:00:00 23 23 Nordeste 37 Nordeste 0 1008 0.8 70
2019-10-09 19:00:00 24.3 31 Este 42 Este 0 1007.4 0.3 62
2019-10-09 18:00:00 25.1 31 Este 45 Este 0 1007.3 -0.3 63
2019-10-09 17:00:00 25.6 34 Este 46 Este 0 1007.2 -0.5 59
2019-10-09 16:00:00 26.1 34 Este 48 Este 0 1007.1 -1.2 57
2019-10-09 15:00:00 26.6 35 Este 50 Este 0 1007.6 -0.6 55
2019-10-09 14:00:00 26.7 34 Este 50 Este 0 1007.7 -0.4 56
2019-10-09 13:00:00 26.3 35 Este 46 Este 0 1008.3 0.2 56
2019-10-09 12:00:00 25.6 36 Este 48 Este 0 1008.2 0.7 58
2019-10-09 11:00:00 25 31 Este 45 Nordeste 0 1008.1 0.7 59
2019-10-09 10:00:00 23.8 26 Nordeste -- -- -- 1008.1 0.6 62
2019-10-09 09:00:00 21.1 14 Norte 21 Norte 0 1007.5 0.3 70
2019-10-09 08:00:00 19.9 13 Norte 21 Norte 0 1007.4 0.1 73
2019-10-09 07:00:00 20.1 12 Norte 21 Norte 0 1007.5 0.3 72
2019-10-09 06:00:00 19.6 13 Norte 21 Nordeste 0 1007.2 -0.7 73
2019-10-09 05:00:00 19.3 12 Norte 17 Norte 0 1007.3 -0.8 75
2019-10-09 04:00:00 20.2 14 Nordeste 21 Nordeste 0 1007.2 -1.1 77
2019-10-09 03:00:00 20.6 10 Nordeste 21 Nordeste 0 1007.9 -0.5 78
2019-10-09 02:00:00 20.7 6 Nordeste 17 Norte 0 1008.1 -1 77
2019-10-09 01:00:00 20.5 10 Norte 15 Nordeste 0 1008.3 -0.3 79
2019-10-09 00:00:00 20.9 12 Nordeste 17 Nordeste 0 1008.4 0.5 79
2019-10-08 23:00:00 21.1 8 Nordeste 32 Nordeste 0 1009.1 1.6 79
2019-10-08 22:00:00 21.9 13 Nordeste 33 Nordeste 0 1008.6 1.3 77
2019-10-08 21:00:00 22.2 14 Nordeste 30 Nordeste 0 1007.9 0.4 76
2019-10-08 20:00:00 22.7 20 Este 35 Nordeste 0 1007.5 0.1 75
2019-10-08 19:00:00 23.8 22 Este 35 Este 0 1007.3 0.2 70
2019-10-08 18:00:00 25 27 Este 41 Este 0 1007.5 0.2 65
2019-10-08 17:00:00 25.7 30 Este 45 Este 0 1007.4 -0.4 64
2019-10-08 16:00:00 26.4 32 Este 45 Este 0 1007.1 -1 61
2019-10-08 15:00:00 26.7 31 Este 45 Este 0 1007.3 -1 60
2019-10-08 14:00:00 26.4 32 Este 45 Este 0 1007.8 -0.8 60
2019-10-08 13:00:00 26.6 36 Este 46 Este 0 1008.1 -0.2 60
2019-10-08 12:00:00 25.9 34 Este 46 Este 0 1008.3 0.5 61
2019-10-08 11:00:00 25.2 31 Este 45 Este 0 1008.6 1 64
2019-10-08 10:00:00 23.6 31 Nordeste 42 Nordeste 0 1008.3 1 68
2019-10-08 09:00:00 21.2 14 Nordeste 22 Nordeste 0 1007.8 0.4 79
2019-10-08 08:00:00 20 14 Norte 21 Nordeste 0 1007.6 0.5 83
2019-10-08 07:00:00 20.5 19 Nordeste 26 Norte 0 1007.3 0 80
2019-10-08 06:00:00 20.2 11 Norte 22 Nordeste 0 1007.4 -0.1 80
2019-10-08 05:00:00 20.8 18 Nordeste 28 Nordeste 0 1007.1 -0.8 78
2019-10-08 04:00:00 20.5 14 Nordeste 24 Nordeste 0 1007.3 -0.9 80
2019-10-08 03:00:00 21.3 18 Nordeste 26 Nordeste 0 1007.5 -0.8 79
2019-10-08 02:00:00 21.4 16 Nordeste 30 Nordeste 0 1007.9 -0.4 79
2019-10-08 01:00:00 21.7 20 Nordeste 37 Nordeste 0 1008.2 0.3 79
2019-10-08 00:00:00 21.9 23 Nordeste 33 Nordeste 0 1008.3 0.8 78
2019-10-07 23:00:00 22 24 Nordeste 35 Nordeste 0 1008.3 1.3 79
2019-10-07 22:00:00 22.2 21 Nordeste 32 Nordeste 0 1007.9 1.2 77
2019-10-07 21:00:00 22.4 21 Nordeste 32 Nordeste 0 1007.5 0.6 77
2019-10-07 20:00:00 23 24 Nordeste 39 Nordeste 0 1007 0.1 73
2019-10-07 19:00:00 24.5 27 Este 42 Nordeste 0 1006.7 -0.6 70
2019-10-07 18:00:00 25.5 29 Este 45 Este 0 1006.9 -0.6 66
2019-10-07 17:00:00 26.2 31 Este 48 Este 0 1006.9 -1.3 62
2019-10-07 16:00:00 26.1 35 Este 46 Este 0 1007.3 -1.5 61
2019-10-07 15:00:00 26.6 33 Este 45 Este 0 1007.5 -1.8 58
2019-10-07 14:00:00 26.6 33 Este 42 Este 0 1008.2 -1.1 58
2019-10-07 13:00:00 26.3 33 Este 48 Este 0 1008.8 -0.1 59
2019-10-07 12:00:00 26.2 31 Este 42 Nordeste 0 1009.3 1 58
2019-10-07 11:00:00 25 31 Este 48 Nordeste 0 1009.3 1.3 63
2019-10-07 10:00:00 23.7 29 Nordeste 45 Este 0 1008.9 1.6 67
2019-10-07 09:00:00 21.4 15 Nordeste 24 Nordeste 0 1008.3 1.4 72
2019-10-07 08:00:00 20.5 14 Norte 26 Nordeste 0 1008 1 74
2019-10-07 07:00:00 20.7 17 Nordeste 32 Nordeste 0 1007.3 -0.1 78
2019-10-07 06:00:00 20.6 19 Nordeste 26 Nordeste 0 1006.9 -0.5 79
2019-10-07 05:00:00 20.6 13 Norte 30 Nordeste 0 1007 -1 75
2019-10-07 04:00:00 20.8 13 Norte 32 Nordeste 0 1007.4 -1.2 76
2019-10-07 03:00:00 21 18 Nordeste 37 Nordeste 0 1007.4 -1.6 77
2019-10-07 02:00:00 21.3 23 Nordeste 33 Nordeste 0 1008 -1.3 75
2019-10-07 01:00:00 21.6 22 Nordeste 35 Este 0 1008.6 -0.7 73
2019-10-07 00:00:00 21.8 23 Nordeste 45 Nordeste 0 1009 0.2 74
2019-10-06 23:00:00 22 26 Nordeste 39 Nordeste 0 1009.3 0.7 73
2019-10-06 22:00:00 22.2 23 Nordeste 39 Nordeste 0 1009.3 1.1 73
2019-10-06 21:00:00 22.4 30 Nordeste 46 Este 0 1008.8 0.6 70
2019-10-06 20:00:00 23 31 Nordeste 52 Este 0 1008.6 0.5 73
2019-10-06 19:00:00 24.3 40 Este 58 Nordeste 0 1008.2 0 63
2019-10-06 18:00:00 25.4 38 Este 55 Nordeste 0 1008.2 -0.5 59
2019-10-06 17:00:00 26.2 40 Este 58 Nordeste 0 1008.1 -1 60
2019-10-06 16:00:00 27 40 Nordeste 55 Nordeste 0 1008.2 -1.3 55
2019-10-06 15:00:00 26.5 39 Este 59 Este 0 1008.7 -0.8 59
2019-10-06 14:00:00 26.6 41 Este 59 Este 0 1009.1 0 56
2019-10-06 13:00:00 26.7 39 Este 55 Este 0 1009.5 0.5 55
2019-10-06 12:00:00 26.3 32 Nordeste 52 Este 0 1009.5 0.7 57
2019-10-06 11:00:00 25.6 33 Nordeste 58 Nordeste 0 1009.1 1.1 59
2019-10-06 10:00:00 23.8 38 Nordeste 54 Nordeste 0 1009 1 64
2019-10-06 09:00:00 22.4 25 Nordeste 42 Nordeste 0 1008.8 1.2 69
2019-10-06 08:00:00 21.6 24 Nordeste 37 Nordeste 0 1008 0.5 76
2019-10-06 07:00:00 21.9 24 Nordeste 42 Nordeste 0 1008 0.3 74
2019-10-06 06:00:00 21.7 26 Nordeste 46 Nordeste 0 1007.6 -0.5 76
2019-10-06 05:00:00 21.9 30 Nordeste 48 Nordeste 0 1007.5 -0.9 75
2019-10-06 04:00:00 22 28 Nordeste 46 Nordeste 0 1007.7 -1 75
2019-10-06 03:00:00 22.2 29 Nordeste 46 Nordeste 0 1008.1 -0.9 73
2019-10-06 02:00:00 22.1 24 Nordeste 41 Nordeste 0 1008.4 -0.4 75
2019-10-06 01:00:00 22.2 29 Nordeste 45 Nordeste 0 1008.7 0.2 77
2019-10-06 00:00:00 22.2 21 Nordeste 39 Nordeste 0 1009 0.9 78
2019-10-05 23:00:00 22.5 28 Nordeste 41 Nordeste 0 1008.8 1.1 76
2019-10-05 22:00:00 22.7 23 Nordeste 41 Nordeste 0 1008.5 1.4 74
2019-10-05 21:00:00 23.1 28 Nordeste 42 Este 0 1008.1 1.2 74
2019-10-05 20:00:00 23.6 30 Nordeste 52 Nordeste 0 1007.7 0.9 76
2019-10-05 19:00:00 25 40 Nordeste 52 Nordeste 0 1007.1 0.2 73
2019-10-05 18:00:00 26.7 36 Nordeste 50 Este 0 1006.9 -0.2 64
2019-10-05 17:00:00 27.5 37 Este 50 Este 0 1006.8 -0.8 63
2019-10-05 16:00:00 28.6 31 Nordeste 55 Este 0 1006.9 -1.4 56
2019-10-05 15:00:00 28 39 Este 55 Este 0 1007.1 -1.1 60
2019-10-05 14:00:00 27.9 36 Este 54 Nordeste 0 1007.6 -0.6 60
2019-10-05 13:00:00 27.9 41 Nordeste 65 Nordeste 0 1008.3 0.3 58
2019-10-05 12:00:00 27.9 39 Nordeste 61 Nordeste 0 1008.2 0.6 58
2019-10-05 11:00:00 26.2 42 Nordeste 59 Este 0 1008.2 1.3 66
2019-10-05 10:00:00 25.5 32 Nordeste 45 Nordeste 0 1008 1.6 66
2019-10-05 09:00:00 23.8 21 Nordeste 52 Nordeste 0 1007.6 1.3 72
2019-10-05 08:00:00 22.6 22 Nordeste 46 Nordeste 0 1006.9 0.8 77
2019-10-05 07:00:00 22.4 30 Nordeste 48 Nordeste 0 1006.4 0.2 78
2019-10-05 06:00:00 22.1 19 Nordeste 37 Nordeste 0 1006.3 0 76
2019-10-05 05:00:00 22.2 28 Nordeste 52 Nordeste 0 1006.1 -0.6 78
2019-10-05 04:00:00 22.2 36 Nordeste 61 Nordeste 0 1006.2 -1 80
2019-10-05 03:00:00 22.3 36 Nordeste 59 Nordeste 0 1006.3 -1.7 78
2019-10-05 02:00:00 22.1 33 Nordeste 52 Nordeste 0 1006.7 -1.5 79
2019-10-05 01:00:00 22.3 30 Nordeste 45 Nordeste 0 1007.2 -1 79
2019-10-05 00:00:00 22.3 21 Nordeste 32 Nordeste 0 1008 0.2 79
2019-10-04 23:00:00 22.5 18 Nordeste 41 Nordeste 0 1008.2 0.6 80
2019-10-04 22:00:00 22.6 26 Este 37 Este 0 1008.2 0.8 79
2019-10-04 21:00:00 22.9 21 Nordeste 39 Nordeste 0 1007.8 0.6 77
2019-10-04 20:00:00 23.6 24 Nordeste 45 Este 0 1007.6 0.7 73
2019-10-04 19:00:00 25.2 28 Nordeste 42 Nordeste 0 1007.4 0.4 65
2019-10-04 18:00:00 26.2 32 Este 48 Este 0 1007.2 -0.2 64
2019-10-04 17:00:00 26.9 31 Este 50 Este 0 1006.9 -1.3 62
2019-10-04 16:00:00 27.9 37 Este 54 Nordeste 0 1007 -2.1 57
2019-10-04 15:00:00 28.1 39 Este 55 Este 0 1007.4 -2.1 58
2019-10-04 14:00:00 27.6 42 Este 59 Este 0 1008.2 -1.2 59
2019-10-04 13:00:00 26.9 40 Este 54 Este 0 1009.1 -0.3 62
2019-10-04 12:00:00 26.7 41 Este 54 Este 0 1009.5 0.2 62
2019-10-04 11:00:00 25.4 37 Nordeste 55 Nordeste 0 1009.4 0.6 68
2019-10-04 10:00:00 23.5 36 Nordeste 50 Nordeste 0 1009.4 0.9 76
2019-10-04 09:00:00 22.5 30 Nordeste 42 Nordeste 0 1009.3 0.5 80
2019-10-04 08:00:00 22.1 31 Nordeste 50 Nordeste 0 1008.8 0.2 83
2019-10-04 07:00:00 22 36 Nordeste 50 Nordeste 0 1008.5 -0.5 85
2019-10-04 06:00:00 22 18 Nordeste 41 Nordeste 0 1008.8 -0.7 84
2019-10-04 05:00:00 21.9 31 Nordeste 46 Nordeste 0 1008.6 -0.9 85
2019-10-04 04:00:00 21.7 28 Nordeste 39 Nordeste 0 1009 -1.2 86
2019-10-04 03:00:00 21.6 14 Nordeste 42 Nordeste 0 1009.5 -1 86
2019-10-04 02:00:00 21.9 30 Nordeste 48 Nordeste 0 1009.5 -0.8 85
2019-10-04 01:00:00 22.1 29 Nordeste 37 Nordeste 0 1010.2 0.3 85
2019-10-04 00:00:00 22.1 23 Nordeste 42 Nordeste 0 1010.5 1.2 84
2019-10-03 23:00:00 22.5 30 Nordeste 48 Nordeste 0 1010.3 0.9 83
2019-10-03 22:00:00 22.6 32 Nordeste 54 Nordeste 0 1009.9 0.6 83
2019-10-03 21:00:00 22.8 28 Nordeste 42 Nordeste 0 1009.3 0.1 82
2019-10-03 20:00:00 23.5 28 Nordeste 46 Nordeste 0 1009.4 -0.3 79
2019-10-03 19:00:00 24.3 33 Nordeste 52 Nordeste 0 1009.3 -0.5 75
2019-10-03 18:00:00 26.2 40 Nordeste 54 Nordeste 0 1009.2 -0.9 68
2019-10-03 17:00:00 27.7 28 Nordeste 42 Nordeste 0 1009.7 -0.7 62
2019-10-03 16:00:00 28.1 32 Este 50 Este 0 1009.8 -1.1 61
2019-10-03 15:00:00 28.7 35 Este 48 Este 0 1010.1 -1.3 59
2019-10-03 14:00:00 29.6 31 Nordeste 50 Nordeste 0 1010.4 -1 54
2019-10-03 13:00:00 29.3 32 Nordeste 46 Nordeste 0 1010.9 -0.5 53
2019-10-03 12:00:00 27.9 32 Nordeste 45 Nordeste 0 1011.4 0.5 61
2019-10-03 11:00:00 27.3 29 Nordeste 45 Nordeste 0 1011.4 1.2 63
2019-10-03 10:00:00 26.8 30 Nordeste 52 Nordeste 0 1011.4 1.9 58
2019-10-03 09:00:00 25.5 24 Nordeste 42 Nordeste 0 1010.9 1.5 56
2019-10-03 08:00:00 24.6 28 Nordeste 46 Nordeste 0 1010.2 0.9 56
2019-10-03 07:00:00 25.5 39 Nordeste 58 Nordeste 0 1009.5 0.2 50
2019-10-03 06:00:00 25.2 39 Nordeste 54 Nordeste 0 1009.4 -0.1 53
2019-10-03 05:00:00 25.2 37 Nordeste 58 Este 0 1009.3 -0.5 52
2019-10-03 04:00:00 24.5 37 Este 50 Nordeste 0 1009.3 -0.5 59
2019-10-03 03:00:00 25 31 Nordeste 46 Nordeste 0 1009.5 -0.5 52
2019-10-03 02:00:00 23.8 31 Nordeste 42 Nordeste 0 1009.8 -0.3 69
2019-10-03 01:00:00 22.8 29 Nordeste 39 Nordeste 0 1009.8 0 84
2019-10-03 00:00:00 22.9 14 Este 24 Este 0 1010 0.7 80
2019-10-02 23:00:00 22.4 0 Calma 8 Sudoeste 0 1010.1 1.3 85
2019-10-02 22:00:00 23.6 3 Sudoeste 8 Oeste 0 1009.8 1 82
2019-10-02 21:00:00 23.9 5 Sudoeste 8 Sudoeste 0 1009.3 0.6 84
2019-10-02 20:00:00 24.7 6 Oeste 15 Oeste 0 1008.8 0.2 78
2019-10-02 19:00:00 25.8 13 Oeste 21 Este 0 1008.8 -0.1 77
2019-10-02 18:00:00 28.1 15 Este 26 Este 0 1008.7 -0.4 66
2019-10-02 17:00:00 28.8 21 Este 26 Este 0 1008.6 -0.5 64
2019-10-02 16:00:00 30.5 15 Este 26 Este 0 1008.9 -0.4 58
2019-10-02 15:00:00 28.7 13 Sudoeste 24 Sudoeste 0 1009.1 -0.2 63
2019-10-02 14:00:00 28.9 17 Sur 28 Sudoeste 0 1009.1 -0.3 60
2019-10-02 13:00:00 29.2 21 Sudoeste 32 Sudoeste 0 1009.3 0.4 55
2019-10-02 12:00:00 31.8 11 Sur 39 Nordeste 0 1009.3 1.1 44
2019-10-02 11:00:00 31.7 25 Nordeste 41 Nordeste 0 1009.4 1.8 23
2019-10-02 10:00:00 26.9 17 Nordeste 32 Nordeste 0 1008.9 1.3 51
2019-10-02 09:00:00 23.2 10 Nordeste 45 Nordeste 0 1008.2 0.9 75
2019-10-02 08:00:00 22 24 Nordeste 33 Nordeste 0 1007.6 0.4 83
2019-10-02 07:00:00 21.5 8 Nordeste 30 Nordeste 0 1007.6 -- 81
2019-10-02 06:00:00 22.3 16 Nordeste 28 Nordeste 0 1007.3 -- 81
2019-10-02 05:00:00 22.6 14 Este 28 Nordeste -- 1007.2 -- 77
2019-10-02 04:00:00 -- -- -- -- -- -- -- -- --
2019-10-02 03:00:00 -- -- -- -- -- -- -- -- --
2019-10-02 02:00:00 -- -- -- -- -- -- -- -- --
2019-10-02 01:00:00 23.8 3 Oeste 24 Este 0 1008.9 0.5 65
2019-10-02 00:00:00 23.9 12 Este 24 Este 0 1009 1.3 56
2019-10-01 23:00:00 23.9 2 Sur 21 Nordeste 0 1008.8 1.5 74
2019-10-01 22:00:00 28.1 12 Nordeste 26 Nordeste 0 1008.4 1.4 25
2019-10-01 21:00:00 28.3 14 Nordeste 30 Este 0 1007.7 0.7 25
2019-10-01 20:00:00 28.8 23 Este 42 Nordeste 0 1007.3 0.6 25
2019-10-01 19:00:00 28.9 31 Este 42 Este 0 1007 0.4 39
2019-10-01 18:00:00 28.1 30 Este 46 Este 0 1007 -0.3 61
2019-10-01 17:00:00 30.4 34 Este 55 Este 0 1006.7 -1.6 44
2019-10-01 16:00:00 31.3 41 Este 61 Este 0 1006.6 -2.1 38
2019-10-01 15:00:00 30.7 41 Este 55 Este 0 1007.3 -1.3 48
2019-10-01 14:00:00 30.9 34 Este 52 Este 0 1008.3 -0.3 46
2019-10-01 13:00:00 29.8 15 Sudoeste 30 Oeste 0 1008.7 0.9 56
2019-10-01 12:00:00 28.1 11 Oeste 26 Sudoeste 0 1008.6 1.7 60
2019-10-01 11:00:00 26.5 15 Sudoeste 28 Sudoeste 0 1008.6 2.1 69
2019-10-01 10:00:00 25.9 9 Sudoeste 28 Nordeste 0 1007.8 2 61
2019-10-01 09:00:00 25.5 17 Nordeste 32 Nordeste 0 1006.9 1.1 49
2019-10-01 08:00:00 25.1 15 Este 52 Nordeste 0 1006.5 1 36
2019-10-01 07:00:00 28.1 39 Nordeste 52 Nordeste 0 1005.8 0.2 19
2019-10-01 06:00:00 23.1 13 Este 21 Nordeste 0 1005.8 -0.2 64
2019-10-01 05:00:00 24.2 7 Sur 13 Sur 0 1005.5 -1.2 48
2019-10-01 04:00:00 25.4 7 Nordeste 28 Nordeste 0 1005.6 -1.3 29
2019-10-01 03:00:00 22.4 5 Sudoeste 13 Este 0 1006 -1.1 70
2019-10-01 02:00:00 22.7 5 Nordeste 18 Nordeste 0 1006.7 -0.2 74
2019-10-01 01:00:00 22.3 2 Oeste 26 Nordeste 0 1006.9 0 80
2019-10-01 00:00:00 23 7 Nordeste 30 Nordeste 0 1007.1 0.8 76
2019-09-30 23:00:00 23.2 19 Nordeste 41 Nordeste 0 1006.9 1 78
2019-09-30 22:00:00 23.2 26 Nordeste 37 Este 0 1006.9 2.2 78
2019-09-30 21:00:00 23.7 20 Nordeste 30 Nordeste 0 1006.3 1.3 76
2019-09-30 20:00:00 24.4 23 Este 30 Este 0 1005.9 0.1 76
2019-09-30 19:00:00 26.2 24 Este 33 Este 0 1004.7 -1.5 69
2019-09-30 18:00:00 27.1 21 Este 33 Este 0 1005 -0.9 66
2019-09-30 17:00:00 27.9 16 Nordeste 32 Este 0 1005.8 -0.3 62
2019-09-30 16:00:00 28.1 18 Sudoeste 33 Sudoeste 0 1006.2 -0.2 65
2019-09-30 15:00:00 29.1 23 Este 32 Este 0 1005.9 -0.9 59
2019-09-30 14:00:00 29.4 12 Este 30 Este 0 1006.1 -0.5 58
2019-09-30 13:00:00 28.7 22 Este 32 Este 0 1006.4 -0.2 57
2019-09-30 12:00:00 27.7 22 Este 30 Este 0 1006.8 0.6 63
2019-09-30 11:00:00 27 16 Este 22 Este 0 1006.6 0.8 65
2019-09-30 10:00:00 23.8 3 Norte 13 Oeste 0 1006.6 1.3 76
2019-09-30 09:00:00 20.8 5 Oeste 9 Sudoeste 0 1006.2 1.3 87
2019-09-30 08:00:00 20.6 0 Calma 15 Norte 0 1005.8 0.3 89
2019-09-30 07:00:00 21 9 Norte 17 Norte 0 1005.3 -0.5 85
2019-09-30 06:00:00 20.3 6 Nordeste 13 Norte 0 1004.9 -0.6 84
2019-09-30 05:00:00 21.1 7 Norte 13 Norte 0 1005.5 -1.2 84
2019-09-30 04:00:00 22 11 Este 41 Nordeste 0 1005.8 -0.8 84
2019-09-30 03:00:00 22.1 31 Nordeste 48 Nordeste 0 1005.5 -1.1 84
2019-09-30 02:00:00 22 24 Nordeste 37 Nordeste 0 1006.7 -0.2 87
2019-09-30 01:00:00 22.2 19 Nordeste 32 Nordeste 0 1006.6 -0.1 85
2019-09-30 00:00:00 22.5 22 Nordeste 37 Este 0 1006.6 0.2 85
2019-09-29 23:00:00 22.6 27 Nordeste 39 Nordeste 0 1006.9 0.6 84
2019-09-29 22:00:00 22.8 25 Nordeste 37 Este 0 1006.7 0.7 83
2019-09-29 21:00:00 23.1 24 Este 32 Este 0 1006.4 0.2 81
2019-09-29 20:00:00 23.8 18 Este 35 Nordeste 0 1006.3 0.1 77
2019-09-29 19:00:00 25.7 27 Este 35 Este 0 1006 -0.5 69
2019-09-29 18:00:00 26.8 25 Este 37 Este 0 1006.2 -1.4 66
2019-09-29 17:00:00 27 29 Este 41 Este 0 1006.2 -1.6 65
2019-09-29 16:00:00 28 29 Este 41 Este 0 1006.5 -2.2 60
2019-09-29 15:00:00 27.6 30 Este 42 Este 0 1007.6 -1.3 61
2019-09-29 14:00:00 27.5 30 Este 42 Este 0 1007.8 -1.1 61
2019-09-29 13:00:00 27.3 31 Este 45 Este 0 1008.7 0.3 61
2019-09-29 12:00:00 26.5 30 Este 42 Este 0 1008.9 1 62
2019-09-29 11:00:00 26.1 31 Este 41 Nordeste 0 1008.9 1 63
2019-09-29 10:00:00 24.7 22 Nordeste 45 Nordeste 0 1008.4 1.2 68
2019-09-29 09:00:00 22.6 27 Nordeste 42 Nordeste 0 1007.9 0.9 77
2019-09-29 08:00:00 21.8 21 Nordeste 39 Nordeste 0 1007.9 0.9 82
2019-09-29 07:00:00 21.5 21 Nordeste 32 Nordeste 0 1007.2 -0.5 81
2019-09-29 06:00:00 21.4 17 Nordeste 32 Nordeste 0 1007 -1.1 81
2019-09-29 05:00:00 21.6 21 Nordeste 32 Nordeste 0 1007 -1.6 82
2019-09-29 04:00:00 21.7 23 Nordeste 33 Nordeste 0 1007.7 -1.2 81
2019-09-29 03:00:00 21.9 16 Nordeste 33 Nordeste 0 1008.1 -1.4 81
2019-09-29 02:00:00 21.8 14 Nordeste 28 Nordeste 0 1008.6 -1 82
2019-09-29 01:00:00 21.7 13 Nordeste 22 Este 0 1008.9 -0.3 81
2019-09-29 00:00:00 22 15 Nordeste 26 Nordeste 0 1009.5 0.6 80
2019-09-28 23:00:00 22.3 18 Nordeste 28 Nordeste 0 1009.6 1.1 78
2019-09-28 22:00:00 22.5 21 Nordeste 39 Nordeste 0 1009.2 0.5 76
2019-09-28 21:00:00 22.7 19 Nordeste 41 Este 0 1008.9 -0.2 75
2019-09-28 20:00:00 23.1 29 Nordeste 41 Nordeste 0 1008.5 -0.8 76
2019-09-28 19:00:00 24.4 28 Este 39 Nordeste 0 1008.7 -0.8 68
2019-09-28 18:00:00 24.8 25 Este 37 Este 0 1009.1 -0.4 67
2019-09-28 17:00:00 26.1 25 Este 39 Este 0 1009.3 -0.5 64
2019-09-28 16:00:00 26.4 29 Este 45 Nordeste 0 1009.5 -0.5 62
2019-09-28 15:00:00 27.2 33 Este 50 Este 0 1009.5 -0.8 58
2019-09-28 14:00:00 27.3 36 Este 50 Este 0 1009.8 -1 56
2019-09-28 13:00:00 26.8 37 Este 52 Este 0 1010 -0.3 57
2019-09-28 12:00:00 26.4 34 Este 46 Este 0 1010.3 0.9 60
2019-09-28 11:00:00 25.8 29 Este 41 Este 0 1010.8 1.9 61
2019-09-28 10:00:00 24.3 23 Nordeste 33 Este 0 1010.3 1.5 64
2019-09-28 09:00:00 22.3 21 Nordeste 33 Nordeste 0 1009.4 0.7 72
2019-09-28 08:00:00 21.3 21 Nordeste 32 Nordeste 0 1008.9 0.1 76
2019-09-28 07:00:00 21.5 21 Nordeste 35 Nordeste 0 1008.8 -0.5 77
2019-09-28 06:00:00 21.5 23 Nordeste 33 Nordeste 0 1008.7 -0.9 77
2019-09-28 05:00:00 21.5 23 Nordeste 35 Nordeste 0 1008.8 -1.2 79
2019-09-28 04:00:00 21.5 14 Nordeste 32 Nordeste 0 1009.3 -1 78
2019-09-28 03:00:00 21.7 18 Nordeste 26 Nordeste 0 1009.6 -1.5 78
2019-09-28 02:00:00 21.8 20 Nordeste 30 Nordeste 0 1010 -1 77
2019-09-28 01:00:00 22 17 Nordeste 32 Nordeste 0 1010.3 -0.1 77
2019-09-28 00:00:00 22.2 21 Nordeste 35 Nordeste 0 1011.1 1 78
2019-09-27 23:00:00 22.3 21 Nordeste 42 Este 0 1011 1.4 76
2019-09-27 22:00:00 22.7 27 Nordeste 37 Nordeste 0 1010.4 1 76
2019-09-27 21:00:00 22.9 24 Nordeste 39 Nordeste 0 1010.1 0.8 74
2019-09-27 20:00:00 23.4 30 Nordeste 46 Nordeste 0 1009.6 0.5 73
2019-09-27 19:00:00 24.6 37 Nordeste 50 Este 0 1009.4 0.1 69
2019-09-27 18:00:00 25.9 33 Este 48 Este 0 1009.3 -0.7 64
2019-09-27 17:00:00 27.1 35 Este 50 Nordeste 0 1009.1 -1.2 59
2019-09-27 16:00:00 27.3 35 Este 48 Este 0 1009.3 -1.6 58
2019-09-27 15:00:00 27.4 32 Este 48 Este 0 1010 -1 58
2019-09-27 14:00:00 27.3 35 Este 52 Este 0 1010.3 -0.9 57
2019-09-27 13:00:00 27 36 Este 48 Este 0 1010.9 0 60
2019-09-27 12:00:00 27 33 Este 50 Este 0 1011 0.5 59
2019-09-27 11:00:00 25.8 30 Este 45 Este 0 1011.2 1 62
2019-09-27 10:00:00 24.5 29 Nordeste 42 Nordeste 0 1010.9 0.9 67
2019-09-27 09:00:00 22.6 17 Nordeste 26 Nordeste 0 1010.5 0.9 72
2019-09-27 08:00:00 21.3 18 Nordeste 26 Nordeste 0 1010.2 0.3 76
2019-09-27 07:00:00 21.4 16 Nordeste 28 Nordeste 0 1010 0 73
2019-09-27 06:00:00 21.4 20 Nordeste 28 Nordeste 0 1009.6 -0.8 73
2019-09-27 05:00:00 21.7 18 Nordeste 28 Nordeste 0 1009.9 -1.1 71
2019-09-27 04:00:00 21.8 18 Nordeste 30 Nordeste 0 1010 -1.3 71
2019-09-27 03:00:00 21.4 15 Nordeste 30 Norte 0 1010.4 -0.7 71
2019-09-27 02:00:00 21.9 17 Nordeste 26 Nordeste 0 1011 -0.3 70
2019-09-27 01:00:00 22.2 14 Nordeste 33 Nordeste 0 1011.3 0.5 72
2019-09-27 00:00:00 22.5 19 Nordeste 32 Este 0 1011.1 1.1 73
2019-09-26 23:00:00 22.8 25 Nordeste 35 Nordeste 0 1011.3 1.7 74
2019-09-26 22:00:00 23 24 Nordeste 41 Nordeste 0 1010.8 1.4 76
2019-09-26 21:00:00 23.1 27 Nordeste 42 Nordeste 0 1010 1.1 72
2019-09-26 20:00:00 23.7 27 Nordeste 45 Este 0 1009.6 0.8 67
2019-09-26 19:00:00 25 29 Este 45 Este 0 1009.4 0.5 67
2019-09-26 18:00:00 26.4 34 Este 48 Este 0 1008.9 -0.4 60
2019-09-26 17:00:00 27.3 33 Este 48 Este 0 1008.8 -1 59
2019-09-26 16:00:00 27.2 36 Este 50 Este 0 1008.9 -1.5 57
2019-09-26 15:00:00 27.4 36 Este 54 Este 0 1009.3 -1.2 57
2019-09-26 14:00:00 27.5 37 Este 58 Este 0 1009.8 -0.8 57
2019-09-26 13:00:00 27.4 40 Este 58 Este 0 1010.4 0.2 60
2019-09-26 12:00:00 26.8 36 Este 52 Este 0 1010.5 0.8 62
2019-09-26 11:00:00 26.4 32 Este 46 Este 0 1010.6 1.3 62
2019-09-26 10:00:00 24.2 33 Este 42 Este 0 1010.2 1.9 73
2019-09-26 09:00:00 23.5 27 Nordeste 37 Nordeste 0 1009.7 1.6 74
2019-09-26 08:00:00 22.5 25 Nordeste 41 Nordeste 0 1009.3 1.1 79
2019-09-26 07:00:00 22.6 30 Nordeste 46 Nordeste 0 1008.3 -0.1 80
2019-09-26 06:00:00 22.5 23 Nordeste 39 Este 0 1008.1 -0.6 84
2019-09-26 05:00:00 21.4 12 Norte 18 Norte 0 1008.2 -0.7 72
2019-09-26 04:00:00 21.3 8 Norte 18 Noroeste 0 1008.4 -1 75
2019-09-26 03:00:00 21.2 11 Norte 18 Norte 0 1008.7 -1 72
2019-09-26 02:00:00 21.9 14 Norte 22 Nordeste 0 1008.9 -0.5 74
2019-09-26 01:00:00 22.5 14 Nordeste 35 Nordeste 0 1009.4 0.5 78
2019-09-26 00:00:00 22.5 15 Nordeste 30 Nordeste 0 1009.7 1.3 75
2019-09-25 23:00:00 22.8 22 Nordeste 35 Nordeste 0 1009.4 1.2 76
2019-09-25 22:00:00 23 21 Nordeste 45 Nordeste 0 1008.9 0.9 74
2019-09-25 21:00:00 23.2 24 Nordeste 41 Nordeste 0 1008.4 0.6 73
2019-09-25 20:00:00 23.8 31 Nordeste 48 Nordeste 0 1008.2 0.3 71
2019-09-25 19:00:00 25.6 32 Nordeste 46 Este 0 1008 -0.2 62
2019-09-25 18:00:00 26.4 31 Este 58 Este 0 1007.8 -1 63
2019-09-25 17:00:00 26.9 36 Este 52 Nordeste 0 1007.9 -1.5 61
2019-09-25 16:00:00 27.7 34 Este 46 Este 0 1008.2 -1.5 57
2019-09-25 15:00:00 27.8 32 Este 46 Este 0 1008.8 -1.8 56
2019-09-25 14:00:00 27.7 33 Este 46 Este 0 1009.4 -1.3 56
2019-09-25 13:00:00 27.6 35 Este 48 Este 0 1009.7 -0.8 57
2019-09-25 12:00:00 27.1 31 Este 41 Este 0 1010.6 0.5 57
2019-09-25 11:00:00 26.4 30 Nordeste 42 Nordeste 0 1010.7 0.8 58
2019-09-25 10:00:00 24.8 29 Nordeste 42 Nordeste 0 1010.5 0.8 62
2019-09-25 09:00:00 22.3 12 Norte 17 Norte 0 1010.1 0.6 68
2019-09-25 08:00:00 19.9 14 Norte 18 Norte 0 1009.9 0.3 71
2019-09-25 07:00:00 20.2 13 Norte 22 Norte 0 1009.7 0 72
2019-09-25 06:00:00 19.8 12 Norte 18 Norte 0 1009.5 -0.6 74
2019-09-25 05:00:00 21.1 13 Norte 24 Norte 0 1009.6 -0.9 72
2019-09-25 04:00:00 21.3 11 Norte 18 Norte 0 1009.7 -1.2 71
2019-09-25 03:00:00 21.2 10 Norte 26 Norte 0 1010.1 -1 71
2019-09-25 02:00:00 21 12 Norte 22 Norte 0 1010.5 -0.7 72
2019-09-25 01:00:00 21.2 12 Norte 21 Nordeste 0 1010.9 -0.1 74
2019-09-25 00:00:00 21.7 12 Norte 26 Nordeste 0 1011.1 0.4 74
2019-09-24 23:00:00 22.3 18 Nordeste 30 Nordeste 0 1011.2 0.8 72
2019-09-24 22:00:00 22.8 23 Nordeste 39 Nordeste 0 1011 0.8 72
2019-09-24 21:00:00 22.8 25 Nordeste 42 Nordeste 0 1010.7 0.7 71
2019-09-24 20:00:00 23.5 29 Nordeste 45 Nordeste 0 1010.4 0.5 70
2019-09-24 19:00:00 25.1 33 Nordeste 52 Este 0 1010.2 0.3 63
2019-09-24 18:00:00 26 36 Este 55 Este 0 1010 -0.7 61
2019-09-24 17:00:00 26.6 39 Este 58 Este 0 1009.9 -1.5 59
2019-09-24 16:00:00 26.6 41 Este 55 Este 0 1009.9 -1.9 59
2019-09-24 15:00:00 27 38 Este 54 Este 0 1010.7 -1.6 55
2019-09-24 14:00:00 26.7 37 Este 55 Este 0 1011.4 -1.1 58
2019-09-24 13:00:00 26.6 37 Este 52 Este 0 1011.8 -0.4 59
2019-09-24 12:00:00 26.4 33 Este 46 Nordeste 0 1012.3 0.6 62
2019-09-24 11:00:00 26.5 23 Nordeste 41 Este 0 1012.5 1.3 54
2019-09-24 10:00:00 24 16 Nordeste 37 Este 0 1012.2 1.4 66
2019-09-24 09:00:00 21.2 10 Norte 15 Nordeste 0 1011.7 1.3 74
2019-09-24 08:00:00 20.9 10 Norte 21 Nordeste 0 1011.2 1.2 75
2019-09-24 07:00:00 21.3 18 Norte 24 Nordeste 0 1010.8 0.5 74
2019-09-24 06:00:00 21.1 13 Norte 22 Nordeste 0 1010.4 -0.4 73
2019-09-24 05:00:00 20.7 14 Norte 32 Norte 0 1010 -1.3 71
2019-09-24 04:00:00 21 13 Norte 22 Norte 0 1010.3 -1.4 69
2019-09-24 03:00:00 21 14 Nordeste 18 Nordeste 0 1010.8 -1 70
2019-09-24 02:00:00 21.7 13 Norte 24 Norte 0 1011.3 -0.8 69
2019-09-24 01:00:00 21.6 13 Norte 24 Nordeste 0 1011.7 0 74
2019-09-24 00:00:00 21.7 14 Nordeste 24 Nordeste 0 1011.8 0.7 71
2019-09-23 23:00:00 22 12 Nordeste 37 Nordeste 0 1012.1 1.3 73
2019-09-23 22:00:00 22.7 19 Nordeste 37 Nordeste 0 1011.7 1.1 72
2019-09-23 21:00:00 23 21 Nordeste 39 Nordeste 0 1011.1 0.3 73
2019-09-23 20:00:00 23.7 32 Nordeste 46 Nordeste 0 1010.8 0.2 71
2019-09-23 19:00:00 24.3 33 Nordeste 46 Este 0 1010.6 0 67
2019-09-23 18:00:00 25.6 32 Este 46 Nordeste 0 1010.8 0.1 62
2019-09-23 17:00:00 26.7 37 Este 52 Este 0 1010.6 -0.4 55
2019-09-23 16:00:00 27.2 35 Este 50 Este 0 1010.6 -1 57
2019-09-23 15:00:00 27.4 34 Este 50 Este 0 1010.7 -1 57
2019-09-23 14:00:00 27.5 35 Este 48 Nordeste 0 1011 -0.5 56
2019-09-23 13:00:00 26.3 35 Este 46 Este 0 1011.6 0.5 60
2019-09-23 12:00:00 24.8 29 Este 41 Nordeste 0 1011.7 1.2 69
2019-09-23 11:00:00 24.7 23 Nordeste 37 Este 0 1011.5 1.4 70
2019-09-23 10:00:00 23.5 19 Nordeste 32 Nordeste 0 1011.1 1.3 72
2019-09-23 09:00:00 22.6 20 Nordeste 28 Nordeste 0 1010.5 1 76
2019-09-23 08:00:00 22.1 20 Nordeste 26 Nordeste 0 1010.1 0.9 77
2019-09-23 07:00:00 22 17 Nordeste 26 Nordeste 0 1009.8 0.4 80
2019-09-23 06:00:00 21.6 17 Nordeste 28 Nordeste 0 1009.5 -0.1 84
2019-09-23 05:00:00 22 20 Nordeste 28 Nordeste 0 1009.2 -0.9 84
2019-09-23 04:00:00 21.8 15 Nordeste 26 Nordeste 0 1009.4 -0.9 86
2019-09-23 03:00:00 22.1 18 Nordeste 24 Nordeste 0 1009.6 -1 85
2019-09-23 02:00:00 22.6 17 Nordeste 26 Nordeste 0 1010.1 -0.5 85
2019-09-23 01:00:00 22.5 18 Nordeste 37 Nordeste 0 1010.3 0.4 86
2019-09-23 00:00:00 22.8 22 Nordeste 39 Nordeste 0 1010.6 1.1 86
2019-09-22 23:00:00 22.8 29 Nordeste 46 Este 0 1010.6 1.5 90
2019-09-22 22:00:00 23.1 28 Nordeste 45 Este 0.5 1009.9 1.1 90
2019-09-22 21:00:00 23 25 Este 41 Este 0 1009.5 0.9 93
2019-09-22 20:00:00 23.4 24 Este 32 Este 0 1009.1 0.4 93
2019-09-22 19:00:00 24.8 18 Este 26 Este 0 1008.8 0.1 86
2019-09-22 18:00:00 24.6 14 Este 22 Sudeste 0.1 1008.6 -0.4 87
2019-09-22 17:00:00 26 10 Sudeste 18 Sur 0 1008.7 -0.7 75
2019-09-22 16:00:00 26.2 13 Sudeste 24 Sudeste 0 1008.7 -1.1 72
2019-09-22 15:00:00 26.9 14 Este 24 Sudeste 0 1009 -1 68
2019-09-22 14:00:00 27.3 11 Sudeste 26 Sudeste 0 1009.4 -0.7 65
2019-09-22 13:00:00 27.5 8 Sur 22 Sudoeste 0 1009.8 0 61
2019-09-22 12:00:00 26.7 12 Sudoeste 18 Sudoeste 0 1010 0.5 66
2019-09-22 11:00:00 26.1 8 Sur 15 Sur 0 1010.1 0.8 66
2019-09-22 10:00:00 25 6 Sur 11 Sudoeste 0 1009.8 0.9 71
2019-09-22 09:00:00 22.9 3 Norte 13 Noroeste 0 1009.5 1 76
2019-09-22 08:00:00 20.1 4 Norte 8 Norte 0 1009.3 1.2 84
2019-09-22 07:00:00 20.4 5 Norte 24 Noroeste 0 1008.9 0.6 83
2019-09-22 06:00:00 20.3 9 Noroeste 11 Noroeste 0 1008.5 0 82
2019-09-22 05:00:00 20.4 7 Noroeste 11 Noroeste 0 1008.1 -0.8 83
2019-09-22 04:00:00 21.1 9 Noroeste 11 Noroeste 0 1008.3 -0.8 83
2019-09-22 03:00:00 21.6 7 Norte -- -- 0 1008.5 -0.9 83
2019-09-22 02:00:00 22.2 4 Norte 5 Norte 0 1008.9 -0.4 82
2019-09-22 01:00:00 22.5 0 Calma 8 Sudeste 0 1009.1 0.2 84
2019-09-22 00:00:00 22.4 5 Sudeste 9 Sudeste 0 1009.4 1.2 83